createdAt,value
2019-06-08T00:02:23.008Z,23.27
2019-06-08T00:04:52.512Z,23.42
2019-06-08T00:07:23.115Z,23.21
2019-06-08T00:09:52.682Z,23.30
2019-06-08T00:12:23.246Z,23.05
2019-06-08T00:14:52.937Z,22.87
2019-06-08T00:17:35.836Z,23.05
2019-06-08T00:19:53.733Z,22.87
2019-06-08T00:22:23.880Z,23.06
2019-06-08T00:24:53.484Z,23.25
2019-06-08T00:27:23.361Z,23.26
2019-06-08T00:29:54.035Z,23.00
2019-06-08T00:32:24.518Z,22.90
2019-06-08T00:34:54.061Z,23.02
2019-06-08T00:37:24.909Z,23.03
2019-06-08T00:39:54.495Z,22.75
2019-06-08T00:42:25.392Z,22.69
2019-06-08T00:44:55.108Z,22.80
2019-06-08T00:47:24.782Z,22.80
2019-06-08T00:49:54.310Z,22.82
2019-06-08T00:52:25.481Z,22.60
2019-06-08T00:54:55.090Z,22.49
2019-06-08T00:57:25.943Z,22.83
2019-06-08T00:59:55.599Z,22.96
2019-06-08T01:02:26.657Z,22.93
2019-06-08T01:04:56.384Z,23.01
2019-06-08T01:07:26.273Z,22.87
2019-06-08T01:09:55.785Z,22.97
2019-06-08T01:12:26.740Z,22.91
2019-06-08T01:14:56.500Z,22.77
2019-06-08T01:17:27.526Z,22.91
2019-06-08T01:19:57.246Z,22.98
2019-06-08T01:22:27.732Z,22.96
2019-06-08T01:24:57.297Z,23.00
2019-06-08T01:27:28.133Z,23.01
2019-06-08T01:29:57.736Z,23.00
2019-06-08T01:32:28.476Z,22.99
2019-06-08T01:34:58.021Z,22.98
2019-06-08T01:37:27.526Z,22.96
2019-06-08T01:39:57.086Z,22.88
2019-06-08T01:42:27.697Z,22.91
2019-06-08T01:44:57.406Z,22.96
2019-06-08T01:47:28.199Z,22.93
2019-06-08T01:49:57.798Z,22.90
2019-06-08T01:52:28.743Z,22.92
2019-06-08T01:54:58.337Z,22.69
2019-06-08T01:57:29.267Z,22.74
2019-06-08T01:59:58.860Z,22.84
2019-06-08T02:02:28.373Z,22.86
2019-06-08T02:04:57.889Z,22.87
2019-06-08T02:07:28.405Z,22.83
2019-06-08T02:09:57.981Z,22.85
2019-06-08T02:12:28.789Z,22.86
2019-06-08T02:14:58.419Z,22.83
2019-06-08T02:17:27.887Z,22.79
2019-06-08T02:19:57.376Z,22.83
2019-06-08T02:22:26.878Z,22.84
2019-06-08T02:24:56.436Z,22.85
2019-06-08T02:27:27.214Z,22.85
2019-06-08T02:29:57.376Z,22.84
2019-06-08T02:32:28.622Z,22.85
2019-06-08T02:34:58.147Z,22.84
2019-06-08T02:37:28.688Z,22.85
2019-06-08T02:39:58.286Z,22.83
2019-06-08T02:42:28.505Z,22.83
2019-06-08T02:44:59.059Z,22.83
2019-06-08T02:47:30.326Z,22.85
2019-06-08T02:49:59.989Z,22.79
2019-06-08T02:52:31.792Z,22.80
2019-06-08T02:55:01.425Z,22.81
2019-06-08T02:57:33.104Z,22.76
2019-06-08T03:00:02.927Z,22.76
2019-06-08T03:02:36.266Z,22.77
2019-06-08T03:05:05.927Z,22.77
2019-06-08T03:07:38.965Z,22.74
2019-06-08T03:10:09.171Z,22.70
2019-06-08T03:12:42.243Z,22.73
2019-06-08T03:15:10.790Z,22.74
2019-06-08T03:17:42.080Z,22.73
2019-06-08T03:20:11.920Z,22.68
2019-06-08T03:22:43.846Z,22.66
2019-06-08T03:25:12.758Z,22.61
2019-06-08T03:27:43.221Z,22.58
2019-06-08T03:30:19.046Z,22.07
2019-06-08T03:32:50.673Z,22.05
2019-06-08T03:35:15.558Z,21.98
2019-06-08T03:37:45.070Z,21.98
2019-06-08T03:40:14.837Z,22.32
2019-06-08T03:42:44.533Z,21.53
2019-06-08T03:45:14.576Z,21.80
2019-06-08T03:47:45.636Z,21.87
2019-06-08T03:50:15.430Z,22.10
2019-06-08T03:52:46.302Z,21.68
2019-06-08T03:55:16.069Z,21.77
2019-06-08T03:57:46.308Z,21.91
2019-06-08T04:00:16.189Z,21.90
2019-06-08T04:02:46.729Z,22.20
2019-06-08T04:05:16.395Z,22.23
2019-06-08T04:07:46.539Z,22.00
2019-06-08T04:10:16.392Z,22.27
2019-06-08T04:12:46.220Z,21.45
2019-06-08T04:15:16.528Z,21.29
2019-06-08T04:17:46.422Z,21.97
2019-06-08T04:20:16.653Z,22.10
2019-06-08T04:22:47.150Z,22.06
2019-06-08T04:25:17.246Z,22.07
2019-06-08T04:27:47.064Z,21.73
2019-06-08T04:30:16.950Z,21.61
2019-06-08T04:32:47.578Z,21.81
2019-06-08T04:35:17.903Z,22.05
2019-06-08T04:37:47.478Z,21.68
2019-06-08T04:40:17.054Z,21.15
2019-06-08T04:42:50.486Z,21.75
2019-06-08T04:45:18.975Z,21.94
2019-06-08T04:47:50.166Z,21.98
2019-06-08T04:50:23.583Z,21.43
2019-06-08T04:52:50.949Z,21.93
2019-06-08T04:55:20.528Z,21.80
2019-06-08T04:57:50.823Z,21.96
2019-06-08T05:00:20.782Z,22.11
2019-06-08T05:02:51.165Z,22.03
2019-06-08T05:05:20.842Z,22.17
2019-06-08T05:07:50.582Z,21.82
2019-06-08T05:10:20.907Z,21.89
2019-06-08T05:12:50.476Z,21.57
2019-06-08T05:15:20.084Z,21.40
2019-06-08T05:17:49.814Z,21.36
2019-06-08T05:20:19.524Z,21.61
2019-06-08T05:22:49.761Z,21.18
2019-06-08T05:25:19.573Z,21.58
2019-06-08T05:27:49.599Z,21.22
2019-06-08T05:30:19.322Z,21.19
2019-06-08T05:32:49.637Z,21.76
2019-06-08T05:35:19.295Z,21.62
2019-06-08T05:37:49.835Z,21.75
2019-06-08T05:40:19.701Z,21.81
2019-06-08T05:42:49.970Z,21.96
2019-06-08T05:45:20.091Z,22.05
2019-06-08T05:47:50.140Z,22.04
2019-06-08T05:50:19.805Z,22.04
2019-06-08T05:52:50.292Z,22.06
2019-06-08T05:55:20.074Z,22.06
2019-06-08T05:57:50.545Z,22.12
2019-06-08T06:00:21.356Z,22.11
2019-06-08T06:02:51.041Z,22.14
2019-06-08T06:05:20.830Z,22.12
2019-06-08T06:07:51.202Z,22.13
2019-06-08T06:10:20.956Z,22.09
2019-06-08T06:12:51.162Z,22.03
2019-06-08T06:15:20.805Z,21.96
2019-06-08T06:17:51.586Z,21.96
2019-06-08T06:20:21.297Z,22.01
2019-06-08T06:22:52.558Z,21.94
2019-06-08T06:25:22.501Z,21.85
2019-06-08T06:27:52.725Z,21.46
2019-06-08T06:30:22.611Z,21.32
2019-06-08T06:32:52.157Z,21.59
2019-06-08T06:35:21.745Z,21.63
2019-06-08T06:37:52.096Z,21.22
2019-06-08T06:40:21.812Z,21.58
2019-06-08T06:42:52.377Z,20.85
2019-06-08T06:45:21.981Z,21.44
2019-06-08T06:47:52.693Z,21.46
2019-06-08T06:50:22.425Z,21.21
2019-06-08T06:52:52.946Z,21.00
2019-06-08T06:55:25.372Z,21.45
2019-06-08T06:57:53.772Z,21.49
2019-06-08T07:00:32.881Z,21.62
2019-06-08T07:03:02.492Z,21.66
2019-06-08T07:05:32.069Z,21.13
2019-06-08T07:08:01.565Z,21.70
2019-06-08T07:10:31.133Z,21.12
2019-06-08T07:13:01.051Z,20.88
2019-06-08T07:15:30.717Z,21.18
2019-06-08T07:18:00.498Z,21.55
2019-06-08T07:20:29.978Z,20.95
2019-06-08T07:22:59.548Z,21.39
2019-06-08T07:25:29.546Z,21.46
2019-06-08T07:27:59.361Z,21.68
2019-06-08T07:30:28.912Z,21.15
2019-06-08T07:32:59.396Z,21.54
2019-06-08T07:35:29.313Z,21.47
2019-06-08T07:37:59.746Z,21.58
2019-06-08T07:40:29.469Z,21.71
2019-06-08T07:43:00.285Z,21.14
2019-06-08T07:45:29.987Z,21.02
2019-06-08T07:48:00.606Z,21.34
2019-06-08T07:50:30.228Z,21.43
2019-06-08T07:52:59.805Z,21.51
2019-06-08T07:55:29.293Z,21.25
2019-06-08T07:58:00.259Z,21.32
2019-06-08T08:00:29.968Z,21.69
2019-06-08T08:02:59.636Z,21.61
2019-06-08T08:05:29.208Z,21.80
2019-06-08T08:07:59.071Z,21.68
2019-06-08T08:10:28.632Z,21.76
2019-06-08T08:12:58.945Z,21.69
2019-06-08T08:15:28.739Z,21.56
2019-06-08T08:17:59.548Z,21.73
2019-06-08T08:21:21.779Z,21.63
2019-06-08T08:24:11.427Z,21.72
2019-06-08T08:26:40.977Z,21.87
2019-06-08T08:29:10.521Z,21.67
2019-06-08T08:31:40.040Z,21.48
2019-06-08T08:34:09.540Z,21.74
2019-06-08T08:36:39.052Z,21.70
2019-06-08T08:39:08.789Z,21.87
2019-06-08T08:41:39.078Z,21.81
2019-06-08T08:44:08.774Z,21.89
2019-06-08T08:46:38.817Z,21.91
2019-06-08T08:49:12.331Z,21.91
2019-06-08T08:51:39.790Z,21.82
2019-06-08T08:54:09.355Z,21.93
2019-06-08T08:56:38.983Z,21.77
2019-06-08T08:59:10.821Z,21.98
2019-06-08T09:01:39.716Z,21.77
2019-06-08T09:04:09.310Z,21.80
2019-06-08T09:06:39.003Z,21.90
2019-06-08T09:09:09.036Z,21.91
2019-06-08T09:11:41.220Z,21.91
2019-06-08T09:14:14.155Z,21.86
2019-06-08T09:16:41.277Z,21.78
2019-06-08T09:19:10.819Z,21.95
2019-06-08T09:21:40.297Z,22.02
2019-06-08T09:24:10.080Z,22.04
2019-06-08T09:26:39.736Z,22.11
2019-06-08T09:29:11.261Z,22.17
2019-06-08T09:31:40.503Z,22.18
2019-06-08T09:34:14.986Z,22.17
2019-06-08T09:36:41.385Z,22.20
2019-06-08T09:39:12.865Z,22.19
2019-06-08T09:41:42.157Z,22.22
2019-06-08T09:44:12.113Z,22.26
2019-06-08T09:46:41.892Z,22.27
2019-06-08T09:49:12.106Z,22.27
2019-06-08T09:51:41.731Z,22.41
2019-06-08T09:54:12.776Z,22.32
2019-06-08T09:56:42.752Z,22.34
2019-06-08T09:59:15.175Z,22.35
2019-06-08T10:01:43.482Z,22.36
2019-06-08T10:04:13.914Z,22.42
2019-06-08T10:06:43.584Z,22.40
2019-06-08T10:09:13.547Z,22.41
2019-06-08T10:11:44.307Z,22.45
2019-06-08T10:14:13.855Z,22.47
2019-06-08T10:16:43.373Z,22.49
2019-06-08T10:19:12.875Z,22.49
2019-06-08T10:21:43.269Z,22.56
2019-06-08T10:24:12.977Z,22.56
2019-06-08T10:26:42.444Z,22.59
2019-06-08T10:29:12.037Z,22.58
2019-06-08T10:31:43.633Z,22.60
2019-06-08T10:34:12.878Z,22.63
2019-06-08T10:36:42.489Z,22.67
2019-06-08T10:39:12.280Z,22.71
2019-06-08T10:41:41.951Z,22.70
2019-06-08T10:44:13.955Z,22.72
2019-06-08T10:46:42.813Z,22.74
2019-06-08T10:49:14.438Z,22.88
2019-06-08T10:51:43.759Z,23.07
2019-06-08T10:54:13.350Z,23.55
2019-06-08T10:56:42.949Z,23.72
2019-06-08T10:59:12.739Z,23.72
2019-06-08T11:01:42.452Z,23.30
2019-06-08T11:04:12.296Z,23.89
2019-06-08T11:06:41.921Z,23.32
2019-06-08T11:09:14.341Z,23.21
2019-06-08T11:11:42.765Z,23.25
2019-06-08T11:14:13.379Z,23.45
2019-06-08T11:16:43.409Z,23.37
2019-06-08T11:19:13.950Z,23.27
2019-06-08T11:21:43.910Z,23.22
2019-06-08T11:24:23.683Z,23.20
2019-06-08T11:26:47.705Z,23.18
2019-06-08T11:29:18.431Z,23.35
2019-06-08T11:31:48.415Z,23.26
2019-06-08T11:34:21.830Z,23.26
2019-06-08T11:36:51.575Z,23.25
2019-06-08T11:39:21.511Z,23.27
2019-06-08T11:41:51.092Z,23.26
2019-06-08T11:44:20.585Z,23.28
2019-06-08T11:46:50.113Z,23.33
2019-06-08T11:49:19.603Z,23.47
2019-06-08T11:51:49.241Z,23.58
2019-06-08T11:54:32.998Z,23.61
2019-06-08T11:56:52.177Z,23.47
2019-06-08T11:59:21.850Z,23.92
2019-06-08T12:01:51.335Z,24.43
2019-06-08T12:04:20.861Z,23.91
2019-06-08T12:06:50.356Z,24.21
2019-06-08T12:09:19.845Z,24.24
2019-06-08T12:11:49.346Z,23.90
2019-06-08T12:14:18.839Z,23.84
2019-06-08T12:16:48.689Z,23.81
2019-06-08T12:19:20.799Z,24.45
2019-06-08T12:21:49.846Z,24.46
2019-06-08T12:24:19.547Z,24.00
2019-06-08T12:26:52.673Z,23.98
2019-06-08T12:29:20.347Z,23.98
2019-06-08T12:31:49.848Z,24.16
2019-06-08T12:34:19.373Z,24.54
2019-06-08T12:36:48.881Z,24.19
2019-06-08T12:39:19.728Z,24.10
2019-06-08T12:41:49.645Z,24.07
2019-06-08T12:44:21.794Z,24.07
2019-06-08T12:46:50.417Z,24.07
2019-06-08T12:49:20.478Z,24.16
2019-06-08T12:51:51.722Z,24.07
2019-06-08T12:54:21.469Z,24.75
2019-06-08T12:56:50.959Z,24.47
2019-06-08T12:59:22.789Z,24.27
2019-06-08T13:01:51.731Z,24.21
2019-06-08T13:04:23.457Z,24.23
2019-06-08T13:06:52.516Z,24.47
2019-06-08T13:09:22.087Z,24.52
2019-06-08T13:11:51.599Z,24.44
2019-06-08T13:14:21.124Z,24.39
2019-06-08T13:16:52.941Z,24.36
2019-06-08T13:19:21.870Z,24.35
2019-06-08T13:21:51.352Z,24.80
2019-06-08T13:24:20.859Z,25.25
2019-06-08T13:26:50.871Z,25.28
2019-06-08T13:29:22.057Z,25.07
2019-06-08T13:31:51.694Z,24.88
2019-06-08T13:34:24.086Z,25.26
2019-06-08T13:36:52.422Z,24.79
2019-06-08T13:39:23.105Z,24.89
2019-06-08T13:41:52.880Z,24.87
2019-06-08T13:44:22.391Z,24.75
2019-06-08T13:46:51.982Z,24.68
2019-06-08T13:49:26.708Z,24.75
2019-06-08T13:51:52.672Z,24.71
2019-06-08T13:54:23.050Z,24.70
2019-06-08T13:56:53.397Z,24.88
2019-06-08T13:59:26.445Z,24.78
2019-06-08T14:01:54.203Z,24.76
2019-06-08T14:04:24.905Z,24.95
2019-06-08T14:06:54.654Z,24.99
2019-06-08T14:09:25.035Z,25.14
2019-06-08T14:11:54.589Z,25.03
2019-06-08T14:14:24.663Z,25.47
2019-06-08T14:16:55.269Z,25.24
2019-06-08T14:19:26.109Z,25.21
2019-06-08T14:21:56.141Z,25.10
2019-06-08T14:24:29.933Z,25.19
2019-06-08T14:26:58.441Z,25.41
2019-06-08T14:29:28.984Z,25.15
2019-06-08T14:31:59.251Z,25.44
2019-06-08T14:34:29.859Z,25.25
2019-06-08T14:37:00.100Z,25.24
2019-06-08T14:39:31.693Z,25.40
2019-06-08T14:42:00.976Z,25.46
2019-06-08T14:44:32.119Z,25.39
2019-06-08T14:47:13.740Z,25.35
2019-06-08T14:49:48.803Z,25.33
2019-06-08T14:52:20.249Z,25.48
2019-06-08T14:54:51.162Z,25.48
2019-06-08T14:57:21.255Z,25.52
2019-06-08T14:59:50.919Z,25.61
2019-06-08T15:02:21.186Z,25.73
2019-06-08T15:04:50.842Z,25.59
2019-06-08T15:07:23.217Z,25.62
2019-06-08T15:09:51.694Z,26.19
2019-06-08T15:12:21.483Z,26.51
2019-06-08T15:14:51.165Z,26.15
2019-06-08T15:17:21.853Z,26.09
2019-06-08T15:19:51.390Z,26.11
2019-06-08T15:22:22.292Z,25.94
2019-06-08T15:24:51.859Z,25.94
2019-06-08T15:27:24.432Z,26.05
2019-06-08T15:29:52.747Z,25.98
2019-06-08T15:32:22.960Z,26.72
2019-06-08T15:34:52.594Z,26.18
2019-06-08T15:37:23.157Z,26.03
2019-06-08T15:39:52.670Z,26.61
2019-06-08T15:42:22.535Z,26.22
2019-06-08T15:44:52.104Z,26.15
2019-06-08T15:47:22.182Z,26.15
2019-06-08T15:49:51.780Z,26.12
2019-06-08T15:52:22.350Z,26.08
2019-06-08T15:54:51.917Z,26.03
2019-06-08T15:57:22.730Z,26.02
2019-06-08T15:59:52.620Z,25.95
2019-06-08T16:02:23.076Z,25.91
2019-06-08T16:04:53.041Z,25.83
2019-06-08T16:07:27.686Z,25.83
2019-06-08T16:09:53.980Z,25.91
2019-06-08T16:12:24.279Z,25.96
2019-06-08T16:14:53.908Z,25.99
2019-06-08T16:17:23.489Z,25.99
2019-06-08T16:19:53.347Z,26.24
2019-06-08T16:22:23.028Z,26.31
2019-06-08T16:24:52.537Z,26.13
2019-06-08T16:27:22.087Z,26.28
2019-06-08T16:29:51.585Z,26.25
2019-06-08T16:32:21.176Z,26.22
2019-06-08T16:34:50.753Z,26.26
2019-06-08T16:37:20.298Z,26.18
2019-06-08T16:39:49.812Z,26.12
2019-06-08T16:42:19.308Z,26.17
2019-06-08T16:44:48.811Z,26.25
2019-06-08T16:47:18.315Z,26.25
2019-06-08T16:49:47.824Z,26.31
2019-06-08T16:52:17.458Z,26.23
2019-06-08T16:54:46.982Z,26.22
2019-06-08T16:57:16.465Z,26.21
2019-06-08T16:59:45.985Z,26.23
2019-06-08T17:02:16.929Z,26.27
2019-06-08T17:04:46.671Z,26.25
2019-06-08T17:07:16.245Z,26.29
2019-06-08T17:09:45.825Z,26.43
2019-06-08T17:12:15.406Z,26.55
2019-06-08T17:14:44.984Z,26.55
2019-06-08T17:17:14.478Z,26.39
2019-06-08T17:19:44.022Z,26.34
2019-06-08T17:22:13.868Z,26.33
2019-06-08T17:24:43.428Z,26.28
2019-06-08T17:27:26.365Z,26.34
2019-06-08T17:29:44.118Z,26.33
2019-06-08T17:32:13.698Z,26.23
2019-06-08T17:34:43.259Z,26.21
2019-06-08T17:37:12.760Z,26.23
2019-06-08T17:39:42.792Z,26.23
2019-06-08T17:42:12.389Z,26.19
2019-06-08T17:44:42.603Z,26.18
2019-06-08T17:47:12.293Z,26.20
2019-06-08T17:49:43.211Z,26.15
2019-06-08T17:52:12.971Z,26.13
2019-06-08T17:54:43.283Z,26.13
2019-06-08T17:57:12.958Z,26.15
2019-06-08T17:59:42.770Z,26.23
2019-06-08T18:02:18.921Z,26.15
2019-06-08T18:04:44.521Z,26.15
2019-06-08T18:07:14.128Z,26.24
2019-06-08T18:09:45.088Z,26.24
2019-06-08T18:12:14.726Z,26.16
2019-06-08T18:14:45.171Z,26.09
2019-06-08T18:17:17.730Z,26.04
2019-06-08T18:19:49.528Z,26.04
2019-06-08T18:22:18.662Z,26.00
2019-06-08T18:24:48.344Z,25.95
2019-06-08T18:27:18.310Z,26.00
2019-06-08T18:29:48.676Z,25.96
2019-06-08T18:32:18.473Z,25.91
2019-06-08T18:34:48.154Z,25.88
2019-06-08T18:37:18.339Z,25.84
2019-06-08T18:39:49.426Z,25.84
2019-06-08T18:42:19.732Z,25.82
2019-06-08T18:44:49.315Z,25.73
2019-06-08T18:47:18.855Z,25.73
2019-06-08T18:49:48.877Z,25.76
2019-06-08T18:52:18.515Z,25.71
2019-06-08T18:54:49.689Z,25.69
2019-06-08T18:57:19.540Z,25.65
2019-06-08T18:59:52.958Z,25.63
2019-06-08T19:02:20.335Z,25.61
2019-06-08T19:04:49.914Z,25.60
2019-06-08T19:07:19.480Z,25.58
2019-06-08T19:09:49.773Z,25.53
2019-06-08T19:12:19.802Z,25.53
2019-06-08T19:14:52.149Z,25.50
2019-06-08T19:17:21.180Z,25.50
2019-06-08T19:19:52.293Z,25.49
2019-06-08T19:22:22.362Z,25.49
2019-06-08T19:24:51.852Z,25.49
2019-06-08T19:27:21.512Z,25.49
2019-06-08T19:29:51.671Z,25.48
2019-06-08T19:32:21.487Z,25.44
2019-06-08T19:34:53.885Z,25.41
2019-06-08T19:37:22.276Z,25.37
2019-06-08T19:39:51.781Z,25.37
2019-06-08T19:42:35.605Z,25.35
2019-06-08T19:45:01.562Z,25.31
2019-06-08T19:47:23.785Z,25.31
2019-06-08T19:49:54.878Z,25.28
2019-06-08T19:52:24.577Z,25.25
2019-06-08T19:54:54.246Z,25.21
2019-06-08T19:57:23.750Z,25.18
2019-06-08T19:59:53.237Z,25.17
2019-06-08T20:02:22.796Z,25.15
2019-06-08T20:04:53.264Z,25.10
2019-06-08T20:07:23.304Z,25.11
2019-06-08T20:09:53.908Z,25.10
2019-06-08T20:12:23.604Z,25.06
2019-06-08T20:14:53.807Z,25.04
2019-06-08T20:17:23.303Z,24.98
2019-06-08T20:19:53.428Z,24.95
2019-06-08T20:22:23.094Z,24.93
2019-06-08T20:24:55.768Z,24.92
2019-06-08T20:27:24.653Z,24.80
2019-06-08T20:29:54.279Z,24.69
2019-06-08T20:32:23.810Z,24.60
2019-06-08T20:34:53.755Z,24.53
2019-06-08T20:37:23.387Z,24.50
2019-06-08T20:40:03.007Z,24.45
2019-06-08T20:42:24.223Z,24.43
2019-06-08T20:44:53.871Z,24.40
2019-06-08T20:47:23.347Z,24.37
2019-06-08T20:49:53.456Z,24.35
2019-06-08T20:52:23.108Z,24.31
2019-06-08T20:54:53.559Z,24.26
2019-06-08T20:57:23.265Z,24.22
2019-06-08T20:59:54.016Z,24.21
2019-06-08T21:02:23.961Z,24.18
2019-06-08T21:04:54.907Z,24.18
2019-06-08T21:07:24.706Z,24.14
2019-06-08T21:09:55.363Z,24.11
2019-06-08T21:12:25.503Z,24.09
2019-06-08T21:14:55.526Z,24.07
2019-06-08T21:17:27.369Z,24.05
2019-06-08T21:19:57.891Z,24.02
2019-06-08T21:22:27.908Z,24.01
2019-06-08T21:25:00.008Z,24.00
2019-06-08T21:27:28.767Z,23.96
2019-06-08T21:30:06.735Z,23.95
2019-06-08T21:32:29.565Z,23.95
2019-06-08T21:35:00.257Z,23.93
2019-06-08T21:37:29.986Z,23.91
2019-06-08T21:40:03.919Z,23.88
2019-06-08T21:42:30.690Z,23.86
2019-06-08T21:45:02.186Z,23.84
2019-06-08T21:47:31.405Z,23.82
2019-06-08T21:50:00.976Z,23.78
2019-06-08T21:52:30.492Z,23.75
2019-06-08T21:55:00.636Z,23.73
2019-06-08T21:57:30.333Z,23.71
2019-06-08T22:00:19.204Z,23.71
2019-06-08T22:02:31.027Z,23.69
2019-06-08T22:05:03.316Z,23.67
2019-06-08T22:07:31.824Z,23.65
2019-06-08T22:10:02.804Z,23.64
2019-06-08T22:12:32.424Z,23.63
2019-06-08T22:15:03.095Z,23.63
2019-06-08T22:17:32.707Z,23.59
2019-06-08T22:20:03.460Z,23.56
2019-06-08T22:22:33.077Z,23.54
2019-06-08T22:25:03.691Z,23.52
2019-06-08T22:27:33.241Z,23.50
2019-06-08T22:30:09.555Z,23.50
2019-06-08T22:32:34.377Z,23.46
2019-06-08T22:35:04.089Z,23.43
2019-06-08T22:37:33.589Z,23.43
2019-06-08T22:40:03.652Z,23.41
2019-06-08T22:42:33.264Z,23.41
2019-06-08T22:45:03.900Z,23.40
2019-06-08T22:47:33.552Z,23.36
2019-06-08T22:50:03.768Z,23.34
2019-06-08T22:52:33.418Z,23.30
2019-06-08T22:55:07.037Z,23.29
2019-06-08T22:57:34.202Z,23.27
2019-06-08T23:00:14.566Z,23.26
2019-06-08T23:02:35.098Z,23.26
2019-06-08T23:05:06.467Z,23.24
2019-06-08T23:07:37.436Z,23.24
2019-06-08T23:10:08.877Z,23.23
2019-06-08T23:12:38.738Z,23.22
2019-06-08T23:15:09.153Z,23.18
2019-06-08T23:17:39.021Z,23.14
2019-06-08T23:20:08.993Z,23.14
2019-06-08T23:22:38.824Z,23.10
2019-06-08T23:25:09.612Z,23.09
2019-06-08T23:27:39.229Z,23.10
2019-06-08T23:30:10.328Z,23.06
2019-06-08T23:32:39.973Z,23.06
2019-06-08T23:35:09.795Z,23.02
2019-06-08T23:37:39.432Z,23.00
2019-06-08T23:40:09.089Z,22.99
2019-06-08T23:42:38.663Z,22.97
2019-06-08T23:45:10.510Z,22.94
2019-06-08T23:47:39.707Z,22.95
2019-06-08T23:50:11.478Z,22.92
2019-06-08T23:52:41.158Z,22.92
2019-06-08T23:55:11.941Z,22.92
2019-06-08T23:57:41.654Z,22.90
